Time;durP1;ratioP1;P1;durP2;ratioP2;P2;SDS_P1;SDS_P2;PMS_P1;PMS_P2;Temp;Humidity;BMP_temperature;BMP_pressure;BME280_temperature;BME280_humidity;BME280_pressure;Samples;Min_cycle;Max_cycle;Signal;HPM_P1;HPM_P2
2022/05/30 00:00:17;;;;;;;3.47;2.60;;;;;;;8.41;100.00;97399.28;5148929;27;20035;-85
2022/05/30 00:02:43;;;;;;;4.10;2.55;;;;;;;8.07;100.00;97382.31;5136462;27;20007;-84
2022/05/30 00:05:11;;;;;;;4.30;2.63;;;;;;;8.31;100.00;97388.53;5150924;27;20079;-83
2022/05/30 00:07:38;;;;;;;3.75;2.80;;;;;;;8.24;100.00;97401.69;5156370;27;20055;-82
2022/05/30 00:10:06;;;;;;;5.53;3.03;;;;;;;8.06;100.00;97386.94;5146742;27;20047;-86
2022/05/30 00:12:32;;;;;;;7.93;3.00;;;;;;;8.31;100.00;97388.53;5156794;27;20495;-86
2022/05/30 00:14:57;;;;;;;7.10;3.63;;;;;;;8.50;100.00;97402.16;5132411;27;20011;-83
2022/05/30 00:17:27;;;;;;;7.25;3.53;;;;;;;8.54;100.00;97414.91;5153706;27;20038;-84
2022/05/30 00:19:52;;;;;;;4.70;3.28;;;;;;;8.46;100.00;97412.84;5129151;27;20075;-85
2022/05/30 00:22:18;;;;;;;8.10;2.72;;;;;;;8.12;100.00;97395.84;5152840;27;20057;-84
2022/05/30 00:24:44;;;;;;;8.13;3.65;;;;;;;8.09;100.00;97396.44;5144471;27;20011;-79
2022/05/30 00:27:10;;;;;;;4.05;3.03;;;;;;;8.05;100.00;97395.41;5147991;27;20015;-82
2022/05/30 00:29:36;;;;;;;5.00;3.17;;;;;;;8.01;100.00;97399.84;5150906;27;20015;-81
2022/05/30 00:32:02;;;;;;;4.65;3.10;;;;;;;7.88;100.00;97403.25;5159894;27;20083;-80
2022/05/30 00:34:27;;;;;;;4.45;3.30;;;;;;;8.05;100.00;97401.66;5150927;27;20027;-84
2022/05/30 00:36:53;;;;;;;5.45;3.65;;;;;;;8.45;100.00;97400.34;5159896;27;20089;-80
2022/05/30 00:39:19;;;;;;;5.47;3.50;;;;;;;8.50;100.00;97413.88;5135086;27;20034;-86
2022/05/30 00:41:44;;;;;;;3.83;2.72;;;;;;;8.69;100.00;97399.41;5141489;27;20016;-86
2022/05/30 00:44:10;;;;;;;3.08;2.38;;;;;;;8.47;100.00;97410.94;5125436;27;20027;-84
2022/05/30 00:46:36;;;;;;;3.67;2.60;;;;;;;8.23;100.00;97408.25;5159528;27;20019;-81
2022/05/30 00:49:08;;;;;;;4.65;2.50;;;;;;;8.25;100.00;97411.47;5138929;27;20027;-85
2022/05/30 00:51:33;;;;;;;3.10;2.33;;;;;;;8.44;100.00;97412.34;5130722;28;20015;-83
2022/05/30 00:54:00;;;;;;;3.20;2.50;;;;;;;8.36;100.00;97410.28;5127329;28;20006;-83
2022/05/30 00:56:44;;;;;;;2.83;2.20;;;;;;;8.11;100.00;97396.16;5140330;27;20027;-84
2022/05/30 00:59:10;;;;;;;3.17;2.22;;;;;;;7.99;100.00;97396.56;5114424;27;20068;-83
2022/05/30 01:01:36;;;;;;;4.20;2.63;;;;;;;7.87;100.00;97393.47;5133659;27;20074;-83
2022/05/30 01:06:51;;;;;;;3.80;2.67;;;;;;;8.02;100.00;97401.44;5137998;27;20042;-81
2022/05/30 01:09:40;;;;;;;3.47;2.35;;;;;;;8.11;100.00;97388.81;5134775;27;20035;-84
2022/05/30 01:12:11;;;;;;;3.30;2.40;;;;;;;7.97;100.00;97374.28;5130937;27;20016;-84
2022/05/30 01:14:40;;;;;;;3.38;2.38;;;;;;;7.90;100.00;97371.91;5113852;27;20035;-83
2022/05/30 01:17:11;;;;;;;5.63;3.03;;;;;;;7.97;100.00;97377.00;5133720;27;20027;-84
2022/05/30 01:19:52;;;;;;;4.85;2.97;;;;;;;8.15;100.00;97389.00;5128121;27;20383;-81
2022/05/30 01:22:26;;;;;;;4.45;3.17;;;;;;;8.45;100.00;97394.06;5135829;27;20085;-84
2022/05/30 01:25:18;;;;;;;4.43;3.00;;;;;;;8.52;100.00;97389.06;5128852;27;20023;-83
2022/05/30 01:27:54;;;;;;;4.82;2.78;;;;;;;8.42;100.00;97384.56;5113871;28;20031;-82
2022/05/30 01:30:20;;;;;;;3.55;2.65;;;;;;;8.21;100.00;97375.03;5115221;27;20027;-85
2022/05/30 01:32:45;;;;;;;3.28;2.58;;;;;;;8.24;100.00;97376.38;5132382;27;20023;-84
2022/05/30 01:35:12;;;;;;;3.75;2.88;;;;;;;8.41;100.00;97366.59;5137484;27;20046;-86
2022/05/30 01:37:37;;;;;;;3.72;2.58;;;;;;;8.34;100.00;97349.00;5140466;27;20118;-84
2022/05/30 01:40:03;;;;;;;3.70;2.92;;;;;;;8.13;100.00;97362.09;5139927;27;20051;-85
2022/05/30 01:42:29;;;;;;;5.18;2.90;;;;;;;8.02;100.00;97371.47;5117283;28;20065;-82
2022/05/30 01:44:55;;;;;;;3.75;2.80;;;;;;;8.08;100.00;97359.44;5142513;27;20035;-84
2022/05/30 01:47:21;;;;;;;4.57;3.22;;;;;;;8.01;100.00;97361.72;5136058;27;20019;-83
2022/05/30 01:49:46;;;;;;;4.35;3.35;;;;;;;8.22;100.00;97357.59;5119432;28;20096;-82
2022/05/30 01:52:12;;;;;;;4.10;3.17;;;;;;;8.02;100.00;97352.41;5141844;28;20023;-84
2022/05/30 01:54:37;;;;;;;4.38;3.33;;;;;;;7.92;100.00;97360.75;5126270;28;20015;-86
2022/05/30 01:57:03;;;;;;;4.45;3.25;;;;;;;7.90;100.00;97349.31;5147006;28;20027;-87
2022/05/30 01:59:28;;;;;;;4.15;3.13;;;;;;;7.90;100.00;97349.31;5145356;28;20122;-85
2022/05/30 02:01:54;;;;;;;5.50;3.83;;;;;;;7.85;100.00;97357.56;5143629;28;20051;-85
2022/05/30 02:04:19;;;;;;;4.45;3.33;;;;;;;8.15;100.00;97373.47;5143234;28;20019;-83
2022/05/30 02:06:45;;;;;;;5.85;3.50;;;;;;;8.24;100.00;97379.88;5140917;28;20075;-87
2022/05/30 02:09:10;;;;;;;4.97;3.53;;;;;;;8.46;100.00;97374.69;5140460;28;20056;-87
2022/05/30 02:11:36;;;;;;;4.47;3.40;;;;;;;8.63;100.00;97378.78;5129891;28;20035;-84
2022/05/30 02:14:02;;;;;;;5.72;4.20;;;;;;;8.78;100.00;97375.81;5142767;28;20056;-85
2022/05/30 02:19:15;;;;;;;5.00;3.72;;;;;;;8.68;100.00;97386.91;5142207;28;20035;-82
2022/05/30 02:21:40;;;;;;;6.40;4.20;;;;;;;8.60;100.00;97375.56;5141054;28;20024;-85
2022/05/30 02:24:06;;;;;;;5.35;3.58;;;;;;;8.71;100.00;97378.13;5133528;28;20078;-82
2022/05/30 02:26:34;;;;;;;5.32;3.90;;;;;;;8.79;100.00;97388.34;5145882;28;20043;-82
2022/05/30 02:28:59;;;;;;;5.00;3.67;;;;;;;8.67;100.00;97388.00;5148553;28;20042;-86
2022/05/30 02:31:25;;;;;;;7.10;3.50;;;;;;;8.67;100.00;97379.84;5156469;27;20007;-84
2022/05/30 02:36:40;;;;;;;6.20;3.88;;;;;;;8.98;100.00;97392.66;5152684;27;20017;-83
2022/05/30 02:39:08;;;;;;;4.38;2.97;;;;;;;9.09;100.00;97401.47;5132829;27;20050;-82
2022/05/30 02:41:34;;;;;;;4.13;3.20;;;;;;;8.95;100.00;97409.63;5130882;27;20027;-77
2022/05/30 02:43:59;;;;;;;4.25;3.22;;;;;;;8.93;100.00;97405.56;5152987;27;20035;-81
2022/05/30 02:46:25;;;;;;;4.55;3.22;;;;;;;9.06;100.00;97410.25;5146090;27;20012;-81
2022/05/30 02:48:51;;;;;;;4.50;3.10;;;;;;;9.18;100.00;97396.94;5127730;27;20011;-85
2022/05/30 02:51:16;;;;;;;4.90;3.30;;;;;;;9.17;100.00;97394.53;5143468;27;20039;-81
2022/05/30 02:53:42;;;;;;;6.10;2.92;;;;;;;8.98;100.00;97389.94;5156795;27;20038;-84
2022/05/30 02:56:11;;;;;;;4.82;3.47;;;;;;;8.93;100.00;97387.28;5134139;28;20545;-84
2022/05/30 02:58:36;;;;;;;4.10;3.00;;;;;;;8.73;100.00;97384.09;5144106;27;20015;-80
2022/05/30 03:01:03;;;;;;;4.15;3.28;;;;;;;8.53;100.00;97374.31;5135628;27;20019;-82
2022/05/30 03:03:28;;;;;;;5.57;3.40;;;;;;;8.37;100.00;97368.28;5156736;27;20019;-83
2022/05/30 03:05:54;;;;;;;8.40;3.42;;;;;;;8.37;100.00;97354.66;5151416;27;20067;-78
2022/05/30 03:08:20;;;;;;;3.67;2.85;;;;;;;8.29;100.00;97346.34;5148907;27;20023;-81
2022/05/30 03:10:46;;;;;;;4.72;3.30;;;;;;;8.21;100.00;97339.63;5144343;27;20084;-81
2022/05/30 03:13:12;;;;;;;8.40;3.80;;;;;;;8.26;100.00;97342.28;5162249;27;20007;-80
2022/05/30 03:15:37;;;;;;;5.05;3.83;;;;;;;8.21;100.00;97338.78;5128573;28;20045;-83
2022/05/30 03:18:03;;;;;;;5.38;3.63;;;;;;;8.16;100.00;97360.69;5149717;27;20061;-84
2022/05/30 03:20:29;;;;;;;4.80;3.70;;;;;;;8.41;100.00;97376.69;5116741;28;20024;-81
2022/05/30 03:22:56;;;;;;;5.47;3.33;;;;;;;8.68;100.00;97381.47;5130844;28;20023;-82
2022/05/30 03:25:22;;;;;;;5.25;4.00;;;;;;;8.72;100.00;97382.47;5149996;27;20007;-81
2022/05/30 03:27:47;;;;;;;5.20;3.78;;;;;;;8.68;100.00;97387.69;5137149;27;20032;-86
2022/05/30 03:30:13;;;;;;;5.68;4.30;;;;;;;8.71;100.00;97389.81;5157453;27;20035;-84
2022/05/30 03:32:39;;;;;;;6.22;4.03;;;;;;;8.66;100.00;97391.84;5158746;27;20024;-81
2022/05/30 03:35:05;;;;;;;8.95;3.80;;;;;;;8.57;100.00;97387.06;5152811;27;20046;-79
2022/05/30 03:37:31;;;;;;;4.80;3.63;;;;;;;8.63;100.00;97395.16;5139729;28;20031;-82
2022/05/30 03:39:57;;;;;;;5.70;3.97;;;;;;;8.54;100.00;97393.09;5141107;28;20007;-83
2022/05/30 03:42:22;;;;;;;5.28;3.95;;;;;;;8.71;100.00;97402.69;5140081;28;20015;-80
2022/05/30 03:44:48;;;;;;;6.57;4.38;;;;;;;8.64;100.00;97385.88;5127539;27;20019;-78
2022/05/30 03:47:14;;;;;;;6.07;4.35;;;;;;;8.42;100.00;97373.69;5162151;27;20015;-79
2022/05/30 03:49:39;;;;;;;4.90;3.40;;;;;;;8.38;100.00;97372.63;5139356;27;20007;-81
2022/05/30 03:52:05;;;;;;;4.25;3.00;;;;;;;8.30;100.00;97378.75;5123430;28;20037;-76
2022/05/30 03:54:32;;;;;;;4.63;3.08;;;;;;;8.26;100.00;97383.16;5140721;28;20012;-78
2022/05/30 03:56:58;;;;;;;4.40;3.30;;;;;;;8.27;100.00;97387.47;5141208;27;20016;-82
2022/05/30 03:59:23;;;;;;;4.30;3.10;;;;;;;8.26;100.00;97372.25;5152001;27;20042;-80
2022/05/30 04:01:48;;;;;;;4.10;3.08;;;;;;;8.24;100.00;97371.72;5126606;28;20018;-79
2022/05/30 04:04:14;;;;;;;4.93;3.30;;;;;;;8.13;100.00;97350.38;5133113;27;20103;-80
2022/05/30 04:06:40;;;;;;;3.33;2.63;;;;;;;8.07;100.00;97342.28;5128782;27;20041;-81
2022/05/30 04:09:07;;;;;;;3.92;2.83;;;;;;;8.05;100.00;97358.09;5146844;27;20020;-77
2022/05/30 04:11:32;;;;;;;3.85;2.88;;;;;;;8.18;100.00;97383.78;5140389;28;20028;-77
2022/05/30 04:13:58;;;;;;;4.47;2.65;;;;;;;8.38;100.00;97399.88;5125106;27;20018;-79
2022/05/30 04:16:23;;;;;;;3.63;2.50;;;;;;;8.43;100.00;97407.97;5148444;27;20056;-78
2022/05/30 04:18:49;;;;;;;5.38;2.70;;;;;;;8.46;100.00;97407.38;5135821;28;20008;-81
2022/05/30 04:21:15;;;;;;;5.95;2.90;;;;;;;8.35;100.00;97405.94;5152258;27;20028;-80
2022/05/30 04:23:42;;;;;;;5.03;2.60;;;;;;;8.41;100.00;97407.47;5140117;28;20033;-83
2022/05/30 04:26:09;;;;;;;3.83;2.80;;;;;;;8.49;100.00;97412.25;5155529;27;20052;-80
2022/05/30 04:28:35;;;;;;;3.58;2.67;;;;;;;8.46;100.00;97410.13;5131191;28;20049;-84
2022/05/30 04:31:09;;;;;;;4.82;2.83;;;;;;;8.66;100.00;97410.91;5122057;28;20043;-85
2022/05/30 04:33:34;;;;;;;3.55;2.70;;;;;;;8.51;100.00;97398.34;5140095;28;20049;-80
2022/05/30 04:36:02;;;;;;;4.22;3.10;;;;;;;8.54;100.00;97397.75;5153106;27;20011;-79
2022/05/30 04:38:31;;;;;;;4.20;2.85;;;;;;;8.60;100.00;97402.81;5128794;27;20007;-84
2022/05/30 04:40:56;;;;;;;3.78;2.45;;;;;;;8.78;100.00;97419.44;5123323;28;20127;-84
2022/05/30 04:43:23;;;;;;;5.63;3.28;;;;;;;8.96;100.00;97426.78;5157638;27;20019;-80
2022/05/30 04:46:02;;;;;;;4.72;2.90;;;;;;;9.10;100.00;97439.38;5152318;27;20066;-83
2022/05/30 04:48:28;;;;;;;4.20;2.92;;;;;;;9.24;100.00;97444.84;5141478;27;20035;-86
2022/05/30 04:50:53;;;;;;;5.50;3.22;;;;;;;9.29;100.00;97458.44;5154491;27;20060;-78
2022/05/30 04:53:18;;;;;;;3.88;2.58;;;;;;;9.36;100.00;97461.59;5142320;27;20058;-79
2022/05/30 04:55:44;;;;;;;4.00;2.60;;;;;;;9.40;100.00;97448.94;5134826;27;20045;-77
2022/05/30 04:58:09;;;;;;;3.33;2.60;;;;;;;9.35;100.00;97448.22;5141434;27;20015;-80
2022/05/30 05:00:34;;;;;;;3.50;2.60;;;;;;;9.36;100.00;97469.78;5139481;28;20071;-80
2022/05/30 05:03:00;;;;;;;3.40;2.67;;;;;;;9.37;100.00;97476.03;5124596;27;20079;-81
2022/05/30 05:05:25;;;;;;;5.85;3.33;;;;;;;9.42;100.00;97474.03;5133251;27;20022;-82
2022/05/30 05:08:04;;;;;;;6.53;3.90;;;;;;;9.47;100.00;97471.22;5159612;27;20055;-80
2022/05/30 05:11:14;;;;;;;5.70;3.47;;;;;;;9.56;100.00;97474.06;5153061;27;20075;-81
2022/05/30 05:13:45;;;;;;;4.72;3.03;;;;;;;9.61;100.00;97482.97;5085513;28;20088;-80
2022/05/30 05:16:12;;;;;;;4.22;3.33;;;;;;;9.67;100.00;97478.22;5127875;27;20011;-84
2022/05/30 05:18:37;;;;;;;4.95;3.20;;;;;;;9.57;100.00;97473.75;5135139;28;20023;-86
2022/05/30 05:21:03;;;;;;;4.63;3.10;;;;;;;9.49;100.00;97471.72;5149191;27;20121;-86
2022/05/30 05:23:29;;;;;;;5.85;3.42;;;;;;;9.58;100.00;97480.03;5133447;27;20026;-84
2022/05/30 05:25:54;;;;;;;7.28;3.88;;;;;;;9.59;100.00;97490.66;5144602;27;20089;-82
2022/05/30 05:28:19;;;;;;;5.72;3.75;;;;;;;9.61;100.00;97493.09;5132883;28;20035;-85
2022/05/30 05:30:45;;;;;;;8.05;4.30;;;;;;;9.73;100.00;97496.13;5103743;28;20039;-76
2022/05/30 05:33:11;;;;;;;9.00;4.60;;;;;;;9.79;100.00;97499.59;5088424;28;20039;-76
2022/05/30 05:35:45;;;;;;;5.32;4.03;;;;;;;9.77;100.00;97502.63;5107568;28;21118;-74
2022/05/30 05:38:11;;;;;;;4.82;3.88;;;;;;;9.89;100.00;97499.41;5110656;27;20027;-74
2022/05/30 05:40:40;;;;;;;4.35;3.58;;;;;;;9.95;100.00;97498.19;5099370;28;20028;-83
2022/05/30 05:43:07;;;;;;;5.75;3.53;;;;;;;10.00;100.00;97496.16;5117068;28;20135;-83
2022/05/30 05:45:34;;;;;;;5.13;3.80;;;;;;;10.14;100.00;97497.03;5116509;27;20424;-83
2022/05/30 05:47:59;;;;;;;9.15;4.32;;;;;;;10.14;100.00;97486.09;5142984;27;20056;-83
2022/05/30 05:50:25;;;;;;;6.78;4.22;;;;;;;10.20;100.00;97484.88;5123781;28;20091;-82
2022/05/30 05:52:53;;;;;;;9.20;3.70;;;;;;;10.08;100.00;97495.47;5145520;28;20044;-84
2022/05/30 05:55:19;;;;;;;4.28;3.50;;;;;;;9.99;100.00;97489.06;5129481;28;20035;-83
2022/05/30 05:57:44;;;;;;;5.05;3.63;;;;;;;10.05;100.00;97487.06;5128733;28;20098;-84
2022/05/30 06:00:11;;;;;;;4.32;3.38;;;;;;;10.06;100.00;97489.47;5144104;28;20438;-85
2022/05/30 06:02:38;;;;;;;5.28;3.30;;;;;;;10.07;100.00;97493.84;5110901;28;20027;-82
2022/05/30 06:05:04;;;;;;;5.68;3.65;;;;;;;10.31;100.00;97501.84;5136109;27;20031;-81
2022/05/30 06:07:32;;;;;;;5.68;3.80;;;;;;;10.45;100.00;97496.38;5134903;27;20043;-83
2022/05/30 06:09:58;;;;;;;5.22;3.40;;;;;;;10.51;100.00;97492.44;5125716;27;20087;-82
2022/05/30 06:12:23;;;;;;;4.90;3.35;;;;;;;10.47;100.00;97494.16;5139647;27;20340;-84
2022/05/30 06:14:49;;;;;;;5.28;3.45;;;;;;;10.52;100.00;97492.13;5125667;27;20027;-84
2022/05/30 06:17:14;;;;;;;6.28;4.03;;;;;;;10.59;100.00;97492.50;5139696;27;20035;-78
2022/05/30 06:19:39;;;;;;;7.20;3.55;;;;;;;10.62;100.00;97497.38;5121073;28;20393;-83
2022/05/30 06:22:06;;;;;;;7.03;3.78;;;;;;;10.77;100.00;97497.03;5147822;27;20061;-84
2022/05/30 06:24:31;;;;;;;4.30;2.80;;;;;;;10.66;100.00;97498.38;5126097;27;20428;-77
2022/05/30 06:26:57;;;;;;;4.80;2.70;;;;;;;10.67;100.00;97502.75;5129736;27;20196;-79
2022/05/30 06:29:22;;;;;;;4.28;2.70;;;;;;;10.50;100.00;97499.81;5126950;27;20110;-80
2022/05/30 06:31:48;;;;;;;4.88;2.88;;;;;;;10.51;100.00;97497.91;5123597;27;20139;-77
2022/05/30 06:34:13;;;;;;;5.03;3.13;;;;;;;10.49;100.00;97502.88;5120531;28;20031;-86
2022/05/30 06:36:44;;;;;;;4.63;3.30;;;;;;;10.65;100.00;97513.16;5141458;27;20031;-85
2022/05/30 06:39:12;;;;;;;4.57;3.35;;;;;;;10.62;100.00;97510.22;5161957;27;20008;-86
2022/05/30 06:41:38;;;;;;;3.97;2.65;;;;;;;10.65;100.00;97504.16;5125782;27;20053;-85
2022/05/30 06:44:06;;;;;;;6.45;3.40;;;;;;;10.81;100.00;97513.63;5125724;28;20019;-85
2022/05/30 06:46:34;;;;;;;3.92;2.80;;;;;;;10.65;100.00;97512.38;5135852;28;20020;-84
2022/05/30 06:49:01;;;;;;;4.45;3.00;;;;;;;10.60;100.00;97516.03;5138665;28;20108;-86
2022/05/30 06:51:28;;;;;;;4.95;3.17;;;;;;;10.63;100.00;97514.59;5120839;28;20027;-88
2022/05/30 06:53:54;;;;;;;5.20;3.25;;;;;;;10.77;100.00;97518.13;5140208;28;20010;-85
2022/05/30 06:56:24;;;;;;;6.50;2.85;;;;;;;10.88;100.00;97515.97;5144961;27;20030;-84
2022/05/30 06:58:50;;;;;;;4.90;3.17;;;;;;;11.02;100.00;97514.00;5126533;28;20024;-83
2022/05/30 07:01:18;;;;;;;3.70;2.63;;;;;;;11.09;100.00;97522.56;5128712;27;20023;-83
2022/05/30 07:03:46;;;;;;;4.32;2.88;;;;;;;11.17;100.00;97525.41;5141195;27;20020;-83
2022/05/30 07:06:15;;;;;;;3.70;2.67;;;;;;;11.14;100.00;97531.50;5119771;27;20810;-86
2022/05/30 07:08:43;;;;;;;3.60;2.53;;;;;;;11.17;100.00;97530.06;5132134;27;20507;-83
2022/05/30 07:11:09;;;;;;;5.47;2.50;;;;;;;11.13;100.00;97529.88;5158432;27;20094;-87
2022/05/30 07:13:35;;;;;;;5.07;2.65;;;;;;;11.13;100.00;97518.09;5140098;27;20015;-85
2022/05/30 07:16:09;;;;;;;3.67;2.17;;;;;;;11.31;100.00;97532.78;5159000;27;20014;-86
2022/05/30 07:18:35;;;;;;;4.15;2.67;;;;;;;11.27;100.00;97527.09;5143021;27;20031;-85
2022/05/30 07:21:04;;;;;;;3.85;2.65;;;;;;;11.24;100.00;97530.47;5140591;27;20020;-83
2022/05/30 07:23:32;;;;;;;4.97;2.67;;;;;;;11.24;100.00;97536.72;5143267;27;20028;-83
2022/05/30 07:25:59;;;;;;;3.55;2.40;;;;;;;11.35;100.00;97526.34;5141507;27;20034;-83
2022/05/30 07:28:28;;;;;;;4.30;2.25;;;;;;;11.55;100.00;97541.47;5128284;28;20034;-83
2022/05/30 07:30:54;;;;;;;3.30;2.47;;;;;;;11.64;100.00;97532.19;5107204;28;20107;-83
2022/05/30 07:33:20;;;;;;;4.13;2.83;;;;;;;11.92;100.00;97537.53;5105174;28;20019;-84
2022/05/30 07:35:45;;;;;;;7.18;2.80;;;;;;;12.20;100.00;97544.47;5121925;28;20077;-82
2022/05/30 07:38:11;;;;;;;3.95;2.35;;;;;;;12.36;100.00;97531.94;5119786;28;20030;-80
2022/05/30 07:40:36;;;;;;;6.55;2.65;;;;;;;12.83;100.00;97542.09;5117063;28;20019;-81
2022/05/30 07:43:01;;;;;;;4.93;2.28;;;;;;;13.21;100.00;97544.28;5085832;28;20027;-81
2022/05/30 07:45:27;;;;;;;4.90;2.33;;;;;;;13.54;100.00;97547.34;5115166;28;20031;-85
2022/05/30 07:47:53;;;;;;;2.83;2.25;;;;;;;13.49;100.00;97551.06;5117010;28;20024;-85
2022/05/30 07:50:19;;;;;;;3.75;2.53;;;;;;;13.41;100.00;97571.09;5133768;28;20034;-86
2022/05/30 07:52:44;;;;;;;4.70;2.38;;;;;;;13.65;100.00;97567.88;5116829;28;20040;-85
2022/05/30 07:55:10;;;;;;;6.30;2.55;;;;;;;13.64;100.00;97569.00;5129211;28;20028;-79
2022/05/30 07:57:50;;;;;;;4.05;2.20;;;;;;;13.04;100.00;97566.19;5115227;28;20035;-79
2022/05/30 08:00:18;;;;;;;2.97;2.08;;;;;;;12.60;100.00;97567.19;5137715;27;20535;-85
2022/05/30 08:02:44;;;;;;;3.13;2.00;;;;;;;12.39;100.00;97549.69;5130342;27;20071;-85
2022/05/30 08:05:12;;;;;;;3.03;2.10;;;;;;;12.02;100.00;97551.81;5150458;27;20031;-83
2022/05/30 08:07:38;;;;;;;3.20;2.03;;;;;;;12.19;100.00;97545.56;5133452;27;20043;-84
2022/05/30 08:10:06;;;;;;;7.50;2.67;;;;;;;12.52;100.00;97554.28;5114620;28;20055;-78
2022/05/30 08:12:32;;;;;;;2.10;1.70;;;;;;;12.96;100.00;97550.50;5094762;28;20030;-79
2022/05/30 08:14:58;;;;;;;2.35;1.85;;;;;;;13.64;99.84;97538.75;5095226;28;20035;-79
2022/05/30 08:17:24;;;;;;;2.58;1.80;;;;;;;14.91;91.64;97547.72;5114212;28;20019;-79
2022/05/30 08:19:49;;;;;;;2.95;2.00;;;;;;;15.34;88.36;97539.16;5114158;28;20114;-78
2022/05/30 08:22:15;;;;;;;2.55;1.55;;;;;;;15.70;83.84;97543.25;5113844;28;20040;-78
2022/05/30 08:24:44;;;;;;;2.55;1.73;;;;;;;15.87;81.54;97546.66;5112762;28;20036;-79
2022/05/30 08:27:09;;;;;;;2.63;1.83;;;;;;;17.32;75.42;97556.25;5113022;28;20056;-82
2022/05/30 08:29:35;;;;;;;2.97;2.03;;;;;;;16.38;78.49;97561.06;5097778;28;20027;-80
2022/05/30 08:32:01;;;;;;;3.22;1.70;;;;;;;16.36;80.44;97558.63;5094715;28;20034;-78
2022/05/30 08:34:27;;;;;;;2.38;1.77;;;;;;;16.20;80.66;97545.81;5094312;28;20104;-77
2022/05/30 08:36:53;;;;;;;2.95;1.75;;;;;;;16.20;82.09;97567.91;5112798;28;20480;-78
2022/05/30 08:42:04;;;;;;;2.03;1.58;;;;;;;16.45;77.44;97556.56;5113473;28;20046;-79
2022/05/30 08:44:30;;;;;;;1.58;1.40;;;;;;;17.33;71.63;97560.59;5112399;28;20476;-78
2022/05/30 08:47:01;;;;;;;2.78;1.90;;;;;;;17.66;71.28;97558.47;5112497;28;20102;-78
2022/05/30 08:49:35;;;;;;;1.75;1.48;;;;;;;18.37;69.25;97555.69;5112916;28;20559;-79
2022/05/30 08:52:19;;;;;;;3.03;1.92;;;;;;;18.10;67.97;97551.84;5113500;28;20024;-78
2022/05/30 08:55:20;;;;;;;2.55;1.40;;;;;;;17.54;69.29;97550.97;5094596;28;20031;-80
2022/05/30 08:58:22;;;;;;;1.90;1.42;;;;;;;17.32;70.47;97550.72;5094583;28;20050;-80
2022/05/30 09:00:52;;;;;;;2.13;1.45;;;;;;;16.65;73.33;97549.38;5113215;28;20027;-80
2022/05/30 09:03:31;;;;;;;1.92;1.40;;;;;;;15.09;80.98;97550.38;5113532;28;20051;-79
2022/05/30 09:06:02;;;;;;;4.55;1.73;;;;;;;15.00;78.40;97551.22;5103083;28;20020;-80
2022/05/30 09:08:41;;;;;;;3.80;1.92;;;;;;;14.61;81.71;97543.34;5124335;28;20044;-79
2022/05/30 09:11:38;;;;;;;8.57;2.00;;;;;;;15.30;81.14;97553.94;5112302;28;20547;-78
2022/05/30 09:14:11;;;;;;;5.50;1.65;;;;;;;16.05;76.23;97563.84;5107858;28;20109;-79
2022/05/30 09:16:41;;;;;;;2.13;1.30;;;;;;;16.01;73.01;97573.94;5113583;28;20122;-79
2022/05/30 09:19:10;;;;;;;2.72;1.70;;;;;;;15.87;72.62;97568.72;5112720;28;20024;-78
2022/05/30 09:21:37;;;;;;;2.00;1.38;;;;;;;15.97;72.81;97568.31;5112168;28;20106;-78
2022/05/30 09:24:02;;;;;;;2.17;1.48;;;;;;;15.83;71.92;97562.28;5112315;28;20031;-77
2022/05/30 09:26:32;;;;;;;2.35;1.70;;;;;;;15.88;73.06;97564.81;5094992;28;20118;-78
2022/05/30 09:29:08;;;;;;;4.55;1.58;;;;;;;15.50;75.45;97565.00;5123947;27;20490;-80
2022/05/30 09:32:01;;;;;;;1.90;1.40;;;;;;;15.53;75.17;97558.00;5138213;27;20031;-79
2022/05/30 09:34:45;;;;;;;1.85;1.50;;;;;;;14.92;77.08;97573.31;5133526;27;20050;-79
2022/05/30 09:37:30;;;;;;;2.22;1.48;;;;;;;14.11;77.88;97569.88;5123112;27;20165;-78
2022/05/30 09:39:56;;;;;;;2.17;1.60;;;;;;;14.43;78.78;97569.34;5116536;27;20027;-80
2022/05/30 09:42:29;;;;;;;1.60;1.35;;;;;;;14.83;74.37;97575.31;5116122;27;20030;-78
2022/05/30 09:45:06;;;;;;;1.83;1.40;;;;;;;14.75;76.17;97570.66;5124845;27;20023;-79
2022/05/30 09:47:32;;;;;;;2.47;1.40;;;;;;;14.79;76.84;97560.56;5133090;27;20047;-81
2022/05/30 09:50:12;;;;;;;2.08;1.30;;;;;;;14.87;76.27;97570.75;5134971;27;20020;-80
2022/05/30 09:52:39;;;;;;;2.13;1.50;;;;;;;14.55;79.49;97552.94;5138136;27;20057;-80
2022/05/30 09:55:38;;;;;;;2.63;1.70;;;;;;;14.95;80.03;97562.44;5113099;28;20110;-79
2022/05/30 09:58:05;;;;;;;1.83;1.50;;;;;;;14.68;81.24;97554.66;5117319;28;20031;-79
2022/05/30 10:00:40;;;;;;;5.05;1.90;;;;;;;14.62;80.99;97555.97;5117988;28;20035;-79
2022/05/30 10:03:25;;;;;;;2.25;1.67;;;;;;;15.46;79.74;97535.66;5134424;28;20031;-81
2022/05/30 10:05:51;;;;;;;2.37;1.73;;;;;;;15.85;77.15;97537.91;5131567;28;20502;-78
2022/05/30 10:08:29;;;;;;;2.03;1.48;;;;;;;15.33;76.99;97543.06;5131707;28;20035;-78
2022/05/30 10:10:58;;;;;;;2.25;1.60;;;;;;;14.70;77.91;97546.88;5094091;28;20036;-80
2022/05/30 10:13:38;;;;;;;2.25;1.65;;;;;;;15.58;75.55;97535.75;5085458;28;20498;-82
2022/05/30 10:16:14;;;;;;;3.05;1.70;;;;;;;16.26;71.29;97552.72;5100323;28;20069;-81
2022/05/30 10:18:58;;;;;;;2.13;1.58;;;;;;;16.74;67.96;97563.88;5100129;28;20038;-80
2022/05/30 10:28:14;;;;;;;2.17;1.50;;;;;;;16.07;69.64;97559.59;5100974;28;20030;-82
2022/05/30 10:30:39;;;;;;;1.55;1.40;;;;;;;17.49;65.08;97561.47;5114842;28;20103;-78
2022/05/30 10:33:14;;;;;;;2.88;1.40;;;;;;;17.65;63.98;97570.69;5126282;28;20098;-82
2022/05/30 10:36:13;;;;;;;2.45;1.55;;;;;;;15.90;69.43;97554.25;5134209;28;20019;-80
2022/05/30 10:39:05;;;;;;;1.58;1.45;;;;;;;16.19;69.55;97563.53;5140201;28;20118;-85
2022/05/30 10:41:41;;;;;;;2.15;1.50;;;;;;;16.52;68.66;97556.00;5125069;28;20031;-83
2022/05/30 10:44:26;;;;;;;1.92;1.50;;;;;;;16.88;65.78;97564.34;5142377;28;20105;-83
2022/05/30 10:47:07;;;;;;;2.10;1.58;;;;;;;16.28;70.52;97564.25;5142593;28;20027;-83
2022/05/30 10:49:38;;;;;;;3.25;1.70;;;;;;;15.74;70.89;97558.78;5125753;28;20034;-84
2022/05/30 10:52:30;;;;;;;2.97;1.52;;;;;;;16.29;69.42;97563.13;5122261;27;20042;-83
2022/05/30 10:55:12;;;;;;;2.53;1.30;;;;;;;15.99;68.98;97554.97;5125256;27;20045;-83
2022/05/30 10:57:55;;;;;;;1.55;1.45;;;;;;;15.90;70.29;97570.81;5145163;27;20038;-83
2022/05/30 11:00:31;;;;;;;2.60;1.70;;;;;;;14.77;79.80;97544.41;5126089;27;20116;-82
2022/05/30 11:03:22;;;;;;;3.00;1.80;;;;;;;14.10;84.70;97562.75;5140401;27;20134;-83
2022/05/30 11:06:29;;;;;;;2.75;1.80;;;;;;;15.00;84.06;97575.22;5142803;27;20031;-80
2022/05/30 11:09:20;;;;;;;2.53;1.70;;;;;;;15.13;81.06;97554.84;5049136;28;20056;-83
2022/05/30 11:12:01;;;;;;;2.20;1.70;;;;;;;15.15;81.59;97579.34;5039278;28;20110;-82
2022/05/30 11:14:45;;;;;;;2.95;1.60;;;;;;;14.70;83.36;97579.91;5093379;28;20129;-76
2022/05/30 11:17:38;;;;;;;1.90;1.60;;;;;;;14.71;85.17;97578.78;5123967;28;20024;-79
2022/05/30 11:20:13;;;;;;;2.80;1.60;;;;;;;14.96;83.94;97583.34;5116846;27;20024;-80
2022/05/30 11:22:44;;;;;;;2.83;1.48;;;;;;;15.34;81.73;97561.22;5115928;27;20039;-80
2022/05/30 11:25:19;;;;;;;1.85;1.60;;;;;;;14.72;83.24;97572.09;5127007;27;20487;-78
2022/05/30 11:28:17;;;;;;;4.78;1.80;;;;;;;15.31;81.10;97572.91;5130102;27;20031;-81
2022/05/30 11:31:15;;;;;;;1.85;1.42;;;;;;;15.70;77.26;97573.59;5136895;27;20035;-80
2022/05/30 11:33:44;;;;;;;2.55;1.58;;;;;;;15.52;78.27;97581.19;5070609;28;20449;-82
2022/05/30 11:36:31;;;;;;;2.30;1.50;;;;;;;15.43;79.32;97577.69;5131893;27;20023;-79
2022/05/30 11:39:55;;;;;;;3.17;1.48;;;;;;;14.72;83.45;97588.63;5130417;27;20015;-83
2022/05/30 11:42:46;;;;;;;2.45;1.73;;;;;;;14.80;81.79;97590.56;5061919;27;20091;-82
2022/05/30 11:45:36;;;;;;;2.00;1.50;;;;;;;15.03;79.63;97586.34;5112687;27;20051;-83
2022/05/30 11:48:26;;;;;;;3.42;1.40;;;;;;;14.88;80.51;97583.38;5112535;27;20023;-83
2022/05/30 11:50:54;;;;;;;1.30;1.20;;;;;;;15.19;79.16;97583.03;5125805;27;20055;-82
2022/05/30 11:53:57;;;;;;;4.30;1.67;;;;;;;14.69;82.62;97589.28;5131063;27;20043;-83
2022/05/30 11:56:35;;;;;;;1.73;1.40;;;;;;;14.40;83.85;97586.50;5128502;27;20399;-84
2022/05/30 11:59:09;;;;;;;1.77;1.40;;;;;;;14.33;82.29;97589.78;5136987;27;20470;-83
2022/05/30 12:01:38;;;;;;;1.80;1.35;;;;;;;14.48;82.45;97572.72;5110935;27;20038;-82
2022/05/30 12:04:25;;;;;;;2.20;1.58;;;;;;;14.59;83.50;97577.84;5116500;27;20102;-85